Baoding, China
Current Conditions -  °F | °C
As of 11:00 AM on Sunday 26 Oct 2014 (Local Time) from ZBSJ Reporting Station
Clear Clear  
Wind Chill: 66°   Ceiling: Unl
Heat Index: 66°   Visibility: 4mi
Dew Point: 43°   Wind: 13mph
Humidity: 43%   Direction: 40°NE
Pressure: 30.27"   Gusts: NA
Location:  38.87°N, 115.48°E
Report Text: ZBSJ 260300Z 04006MPS 7000 R33/1000N NSC 19/06 Q1025 NOSIG
Loading
Personal Weather Stations






























Interactive Weather Map
Tropical Storm Tracking
New forecast layout! Learn more

10-Day Weather Forecast

Advertisements
Track Severe Weather on mobile